Time;durP1;ratioP1;P1;durP2;ratioP2;P2;SDS_P1;SDS_P2;PMS_P1;PMS_P2;Temp;Humidity;BMP_temperature;BMP_pressure;BME280_temperature;BME280_humidity;BME280_pressure;Samples;Min_cycle;Max_cycle;Signal;HPM_P1;HPM_P2
2023/07/06 00:00:17;;;;;;;10.70;6.25;;;;;;;;;;5045858;28;20071;-73
2023/07/06 00:02:43;;;;;;;12.57;6.28;;;;;;;;;;5046568;28;20102;-74
2023/07/06 00:05:09;;;;;;;12.98;6.18;;;;;;;;;;5048725;28;20048;-75
2023/07/06 00:07:36;;;;;;;11.18;6.30;;;;;;;;;;5035903;28;20401;-75
2023/07/06 00:10:04;;;;;;;12.23;6.75;;;;;;;;;;5047604;28;20075;-74
2023/07/06 00:12:30;;;;;;;14.27;6.75;;;;;;;;;;5051345;28;20052;-74
2023/07/06 00:14:57;;;;;;;12.63;5.93;;;;;;;;;;5055538;28;20048;-75
2023/07/06 00:17:23;;;;;;;11.85;6.53;;;;;;;;;;5055784;28;20045;-74
2023/07/06 00:19:49;;;;;;;11.32;6.72;;;;;;;;;;5055491;28;20041;-74
2023/07/06 00:22:15;;;;;;;11.65;6.35;;;;;;;;;;5054777;28;20410;-73
2023/07/06 00:24:46;;;;;;;9.73;6.65;;;;;;;;;;5055914;28;20052;-74
2023/07/06 00:27:15;;;;;;;11.73;7.27;;;;;;;;;;5052814;28;20049;-74
2023/07/06 00:29:56;;;;;;;14.35;7.55;;;;;;;;;;5053784;28;20064;-74
2023/07/06 00:32:28;;;;;;;13.93;7.38;;;;;;;;;;5054015;28;20048;-74
2023/07/06 00:34:59;;;;;;;15.07;7.45;;;;;;;;;;5044855;28;20541;-73
2023/07/06 00:37:26;;;;;;;10.73;7.28;;;;;;;;;;5043196;28;20099;-73
2023/07/06 00:39:53;;;;;;;13.27;7.85;;;;;;;;;;5044196;28;20439;-74
2023/07/06 00:42:21;;;;;;;13.30;7.85;;;;;;;;;;5044415;28;20045;-73
2023/07/06 00:44:49;;;;;;;11.73;8.38;;;;;;;;;;5042507;28;20103;-74
2023/07/06 00:47:15;;;;;;;12.93;7.78;;;;;;;;;;5044434;28;20114;-74
2023/07/06 00:49:42;;;;;;;13.15;8.23;;;;;;;;;;5044683;28;20041;-74
2023/07/06 00:52:10;;;;;;;13.52;8.15;;;;;;;;;;5042468;28;20410;-73
2023/07/06 00:54:40;;;;;;;14.90;8.00;;;;;;;;;;5045197;28;20048;-74
2023/07/06 00:57:07;;;;;;;11.80;7.43;;;;;;;;;;5046795;28;20403;-73
2023/07/06 00:59:34;;;;;;;11.40;8.18;;;;;;;;;;5050155;28;20051;-74
2023/07/06 01:02:00;;;;;;;11.73;7.72;;;;;;;;;;5043597;28;20045;-73
2023/07/06 01:04:27;;;;;;;13.35;8.20;;;;;;;;;;5044360;28;20108;-73
2023/07/06 01:06:55;;;;;;;13.25;8.38;;;;;;;;;;5045110;28;20103;-74
2023/07/06 01:09:21;;;;;;;13.73;8.35;;;;;;;;;;5047071;28;20104;-74
2023/07/06 01:11:48;;;;;;;14.07;7.80;;;;;;;;;;5046577;28;20395;-73
2023/07/06 01:14:14;;;;;;;11.90;8.05;;;;;;;;;;5045377;28;20041;-74
2023/07/06 01:16:54;;;;;;;11.70;7.38;;;;;;;;;;5045344;28;20052;-74
2023/07/06 01:19:39;;;;;;;10.85;8.05;;;;;;;;;;5042905;28;20120;-74
2023/07/06 01:22:24;;;;;;;12.20;8.25;;;;;;;;;;5040915;28;20045;-74
2023/07/06 01:25:09;;;;;;;11.52;8.25;;;;;;;;;;5045843;28;20175;-75
2023/07/06 01:27:51;;;;;;;12.50;8.20;;;;;;;;;;5049185;28;20131;-76
2023/07/06 01:30:36;;;;;;;15.18;7.82;;;;;;;;;;5048428;28;20108;-74
2023/07/06 01:33:11;;;;;;;12.30;8.27;;;;;;;;;;5045111;28;20077;-73
2023/07/06 01:35:42;;;;;;;12.98;7.63;;;;;;;;;;5040836;28;20071;-73
2023/07/06 01:38:09;;;;;;;12.65;8.35;;;;;;;;;;5030465;28;20049;-74
2023/07/06 01:40:35;;;;;;;14.43;8.05;;;;;;;;;;5044459;28;20037;-73
2023/07/06 01:43:03;;;;;;;16.40;7.95;;;;;;;;;;5047308;28;20045;-73
2023/07/06 01:45:30;;;;;;;10.60;7.38;;;;;;;;;;5046885;28;20128;-73
2023/07/06 01:47:58;;;;;;;12.63;7.72;;;;;;;;;;5045225;28;20041;-74
2023/07/06 01:50:50;;;;;;;12.15;6.60;;;;;;;;;;5051923;28;20053;-74
2023/07/06 01:53:19;;;;;;;12.23;7.50;;;;;;;;;;5041054;28;20102;-73
2023/07/06 01:55:53;;;;;;;12.30;7.50;;;;;;;;;;5045944;28;20045;-73
2023/07/06 01:58:38;;;;;;;14.65;7.95;;;;;;;;;;5053217;28;20044;-74
2023/07/06 02:01:10;;;;;;;11.40;7.00;;;;;;;;;;5050494;28;20059;-74
2023/07/06 02:03:38;;;;;;;13.07;7.82;;;;;;;;;;5053167;28;20517;-74
2023/07/06 02:06:06;;;;;;;12.30;7.70;;;;;;;;;;5056433;28;20072;-74
2023/07/06 02:08:32;;;;;;;13.48;7.82;;;;;;;;;;5059776;28;20041;-74
2023/07/06 02:11:01;;;;;;;11.80;8.10;;;;;;;;;;5057341;28;20123;-74
2023/07/06 02:13:27;;;;;;;12.52;8.20;;;;;;;;;;5058383;28;20041;-75
2023/07/06 02:15:54;;;;;;;12.70;7.80;;;;;;;;;;5059821;28;20124;-75
2023/07/06 02:18:21;;;;;;;13.23;8.15;;;;;;;;;;5060159;28;20056;-75
2023/07/06 02:20:47;;;;;;;11.90;7.78;;;;;;;;;;5059382;28;20071;-75
2023/07/06 02:23:13;;;;;;;12.40;7.88;;;;;;;;;;5059184;28;20067;-74
2023/07/06 02:25:39;;;;;;;13.55;8.15;;;;;;;;;;5058648;28;20448;-73
2023/07/06 02:28:08;;;;;;;13.30;8.23;;;;;;;;;;5058536;28;20060;-74
2023/07/06 02:30:34;;;;;;;9.80;6.93;;;;;;;;;;5057465;28;20041;-74
2023/07/06 02:33:01;;;;;;;11.35;7.95;;;;;;;;;;5057460;28;20087;-75
2023/07/06 02:35:27;;;;;;;13.27;8.20;;;;;;;;;;5041996;28;20493;-74
2023/07/06 02:37:53;;;;;;;13.18;7.93;;;;;;;;;;5058865;28;20605;-74
2023/07/06 02:40:19;;;;;;;11.45;7.43;;;;;;;;;;5059881;28;20041;-75
2023/07/06 02:42:45;;;;;;;13.27;7.35;;;;;;;;;;5056581;28;20609;-73
2023/07/06 02:45:11;;;;;;;13.57;7.70;;;;;;;;;;5059458;28;20049;-74
2023/07/06 02:47:40;;;;;;;14.07;8.23;;;;;;;;;;5059038;28;20045;-75
2023/07/06 02:50:11;;;;;;;13.07;7.55;;;;;;;;;;5060279;28;20041;-74
2023/07/06 02:52:37;;;;;;;11.23;8.10;;;;;;;;;;5059337;28;20136;-74
2023/07/06 02:55:04;;;;;;;11.77;7.90;;;;;;;;;;5061749;28;20060;-75
2023/07/06 02:57:31;;;;;;;11.00;7.85;;;;;;;;;;5065481;28;20064;-74
2023/07/06 02:59:58;;;;;;;11.73;7.80;;;;;;;;;;5065240;28;20123;-74
2023/07/06 03:02:24;;;;;;;13.55;8.80;;;;;;;;;;5058651;28;20047;-74
2023/07/06 03:04:53;;;;;;;13.15;8.57;;;;;;;;;;5057261;28;20049;-74
2023/07/06 03:07:19;;;;;;;12.55;7.85;;;;;;;;;;5056925;28;20045;-75
2023/07/06 03:09:45;;;;;;;11.00;8.20;;;;;;;;;;5057239;28;20406;-74
2023/07/06 03:12:11;;;;;;;12.95;8.48;;;;;;;;;;5055953;28;20075;-75
2023/07/06 03:14:37;;;;;;;13.57;8.55;;;;;;;;;;5050331;28;20037;-74
2023/07/06 03:17:03;;;;;;;11.95;8.30;;;;;;;;;;5051534;28;20101;-74
2023/07/06 03:19:29;;;;;;;11.38;8.65;;;;;;;;;;5050697;28;20044;-75
2023/07/06 03:21:58;;;;;;;14.85;9.25;;;;;;;;;;5048702;28;20041;-75
2023/07/06 03:24:25;;;;;;;13.18;8.85;;;;;;;;;;5050591;28;20067;-74
2023/07/06 03:26:52;;;;;;;11.88;8.48;;;;;;;;;;5049511;28;20045;-75
2023/07/06 03:29:20;;;;;;;11.82;8.25;;;;;;;;;;5052035;28;20049;-74
2023/07/06 03:31:46;;;;;;;13.93;9.02;;;;;;;;;;5048806;28;20049;-75
2023/07/06 03:34:12;;;;;;;13.02;8.20;;;;;;;;;;5029205;28;20099;-74
2023/07/06 03:36:39;;;;;;;13.82;9.05;;;;;;;;;;5047903;28;20121;-76
2023/07/06 03:39:06;;;;;;;15.68;9.80;;;;;;;;;;5051711;28;20041;-74
2023/07/06 03:41:32;;;;;;;12.20;8.65;;;;;;;;;;5049102;28;20045;-74
2023/07/06 03:43:58;;;;;;;13.18;9.25;;;;;;;;;;5050007;28;20045;-73
2023/07/06 03:46:25;;;;;;;16.17;9.23;;;;;;;;;;5042989;28;20072;-73
2023/07/06 03:48:51;;;;;;;12.35;8.40;;;;;;;;;;5048646;28;20041;-74
2023/07/06 03:51:18;;;;;;;14.43;9.40;;;;;;;;;;5051132;28;20033;-75
2023/07/06 03:53:46;;;;;;;16.02;9.95;;;;;;;;;;5050814;28;20045;-73
2023/07/06 03:56:13;;;;;;;15.23;8.60;;;;;;;;;;5032834;28;20053;-75
2023/07/06 03:58:41;;;;;;;15.65;8.50;;;;;;;;;;5045608;28;20045;-74
2023/07/06 04:01:07;;;;;;;15.05;9.20;;;;;;;;;;5046372;28;20108;-74
2023/07/06 04:03:34;;;;;;;15.20;9.82;;;;;;;;;;5046645;28;20500;-74
2023/07/06 04:06:03;;;;;;;11.68;8.35;;;;;;;;;;5048755;28;20055;-74
2023/07/06 04:08:29;;;;;;;12.48;8.80;;;;;;;;;;5047175;28;20040;-74
2023/07/06 04:10:55;;;;;;;14.02;8.52;;;;;;;;;;5054518;28;20075;-74
2023/07/06 04:13:22;;;;;;;12.25;8.40;;;;;;;;;;5053755;28;20047;-73
2023/07/06 04:15:52;;;;;;;15.30;9.05;;;;;;;;;;5054645;28;20049;-74
2023/07/06 04:18:18;;;;;;;16.25;9.85;;;;;;;;;;5053469;28;20499;-73
2023/07/06 04:20:44;;;;;;;14.93;9.80;;;;;;;;;;5052226;28;20073;-74
2023/07/06 04:23:10;;;;;;;15.88;8.63;;;;;;;;;;5054897;28;20495;-75
2023/07/06 04:25:38;;;;;;;15.55;10.00;;;;;;;;;;5054346;28;20037;-74
2023/07/06 04:28:14;;;;;;;15.15;8.95;;;;;;;;;;5047724;28;20068;-74
2023/07/06 04:30:41;;;;;;;15.43;8.85;;;;;;;;;;5051072;28;20057;-74
2023/07/06 04:33:11;;;;;;;16.05;9.52;;;;;;;;;;5048133;28;20184;-74
2023/07/06 04:35:37;;;;;;;15.82;9.40;;;;;;;;;;5043052;28;20046;-74
2023/07/06 04:38:03;;;;;;;15.15;9.00;;;;;;;;;;5047579;28;20048;-73
2023/07/06 04:40:29;;;;;;;13.35;8.85;;;;;;;;;;5048484;28;20048;-74
2023/07/06 04:42:56;;;;;;;13.95;8.98;;;;;;;;;;5043976;28;20040;-75
2023/07/06 04:45:27;;;;;;;15.30;9.57;;;;;;;;;;5047140;28;20049;-75
2023/07/06 04:47:57;;;;;;;15.07;8.80;;;;;;;;;;5049462;28;20372;-75
2023/07/06 04:50:23;;;;;;;15.77;9.43;;;;;;;;;;5047202;28;20059;-74
2023/07/06 04:52:53;;;;;;;14.48;8.65;;;;;;;;;;5045026;28;20411;-74
2023/07/06 04:55:22;;;;;;;15.55;9.50;;;;;;;;;;5044530;28;20442;-74
2023/07/06 04:57:50;;;;;;;13.77;8.43;;;;;;;;;;5043250;28;20116;-74
2023/07/06 05:00:18;;;;;;;14.50;8.45;;;;;;;;;;5045681;28;20064;-75
2023/07/06 05:02:47;;;;;;;15.38;8.38;;;;;;;;;;5044842;28;20127;-74
2023/07/06 05:05:17;;;;;;;18.50;9.20;;;;;;;;;;5043988;28;20041;-74
2023/07/06 05:07:43;;;;;;;14.98;9.00;;;;;;;;;;5046905;28;20053;-74
2023/07/06 05:10:09;;;;;;;15.20;8.18;;;;;;;;;;5048754;28;20057;-75
2023/07/06 05:12:36;;;;;;;15.80;8.93;;;;;;;;;;5046087;28;20079;-75
2023/07/06 05:15:02;;;;;;;13.75;9.38;;;;;;;;;;5045890;28;20127;-75
2023/07/06 05:17:28;;;;;;;20.90;9.82;;;;;;;;;;5047307;28;20097;-74
2023/07/06 05:19:55;;;;;;;17.17;9.82;;;;;;;;;;5047865;28;20041;-74
2023/07/06 05:22:23;;;;;;;11.93;7.88;;;;;;;;;;5048268;28;20072;-74
2023/07/06 05:24:50;;;;;;;18.00;8.75;;;;;;;;;;5055477;28;20120;-75
2023/07/06 05:27:16;;;;;;;14.98;9.05;;;;;;;;;;5054084;28;20047;-74
2023/07/06 05:29:42;;;;;;;15.55;8.45;;;;;;;;;;5055321;28;20075;-74
2023/07/06 05:32:09;;;;;;;12.95;8.60;;;;;;;;;;5054675;28;20083;-74
2023/07/06 05:34:35;;;;;;;13.75;9.50;;;;;;;;;;5060286;28;20083;-74
2023/07/06 05:37:02;;;;;;;15.27;9.23;;;;;;;;;;5060918;28;20045;-74
2023/07/06 05:39:28;;;;;;;16.70;8.40;;;;;;;;;;5058955;28;20411;-74
2023/07/06 05:41:54;;;;;;;16.25;8.30;;;;;;;;;;5055259;28;20055;-75
2023/07/06 05:44:20;;;;;;;12.50;8.07;;;;;;;;;;5049859;28;20041;-75
2023/07/06 05:46:46;;;;;;;15.15;8.80;;;;;;;;;;5054017;28;20045;-75
2023/07/06 05:49:12;;;;;;;15.13;7.57;;;;;;;;;;5051926;28;20064;-74
2023/07/06 05:51:38;;;;;;;15.15;7.25;;;;;;;;;;5051110;28;20048;-74
2023/07/06 05:54:04;;;;;;;12.60;6.85;;;;;;;;;;5049120;28;20135;-74
2023/07/06 05:56:31;;;;;;;14.27;7.38;;;;;;;;;;5048815;28;20056;-73
2023/07/06 05:59:00;;;;;;;15.20;7.32;;;;;;;;;;5048085;28;20183;-74
2023/07/06 06:01:29;;;;;;;16.57;7.80;;;;;;;;;;5048907;28;20052;-73
2023/07/06 06:03:55;;;;;;;16.75;7.72;;;;;;;;;;5051325;28;20318;-73
2023/07/06 06:06:26;;;;;;;12.18;6.90;;;;;;;;;;5055434;28;20126;-73
2023/07/06 06:08:52;;;;;;;12.35;7.13;;;;;;;;;;5050749;28;20045;-74
2023/07/06 06:11:19;;;;;;;11.98;6.47;;;;;;;;;;5057720;28;20099;-74
2023/07/06 06:13:47;;;;;;;14.50;6.53;;;;;;;;;;5057136;28;20056;-73
2023/07/06 06:16:14;;;;;;;11.68;6.35;;;;;;;;;;5050080;28;20060;-73
2023/07/06 06:18:40;;;;;;;16.00;7.38;;;;;;;;;;5037360;28;20566;-72
2023/07/06 06:21:07;;;;;;;11.25;5.93;;;;;;;;;;5054753;28;20041;-72
2023/07/06 06:23:33;;;;;;;11.20;6.85;;;;;;;;;;5057042;28;20143;-74
2023/07/06 06:25:59;;;;;;;12.77;7.75;;;;;;;;;;5036087;28;20103;-73
2023/07/06 06:28:26;;;;;;;11.75;6.57;;;;;;;;;;5036557;28;20057;-73
2023/07/06 06:30:52;;;;;;;15.02;6.65;;;;;;;;;;5036593;28;20049;-72
2023/07/06 06:33:18;;;;;;;12.15;6.40;;;;;;;;;;5046018;28;20045;-73
2023/07/06 06:35:44;;;;;;;16.52;7.63;;;;;;;;;;5051626;28;20075;-73
2023/07/06 06:38:11;;;;;;;14.52;6.70;;;;;;;;;;5056965;28;20048;-73
2023/07/06 06:40:37;;;;;;;12.43;6.43;;;;;;;;;;5056278;28;20051;-74
2023/07/06 06:43:04;;;;;;;14.07;6.80;;;;;;;;;;5050724;28;20410;-74
2023/07/06 06:45:31;;;;;;;11.98;6.45;;;;;;;;;;5049398;28;20045;-73
2023/07/06 06:47:57;;;;;;;13.85;6.32;;;;;;;;;;5056198;28;20049;-74
2023/07/06 06:50:23;;;;;;;11.32;6.00;;;;;;;;;;5055291;28;20083;-73
2023/07/06 06:52:50;;;;;;;12.10;6.28;;;;;;;;;;5055347;28;20045;-73
2023/07/06 06:55:16;;;;;;;13.48;6.35;;;;;;;;;;5055872;28;20055;-74
2023/07/06 06:57:43;;;;;;;13.68;6.40;;;;;;;;;;5055391;28;20487;-74
2023/07/06 07:00:10;;;;;;;16.88;6.18;;;;;;;;;;5056102;28;20045;-73
2023/07/06 07:02:38;;;;;;;11.98;6.00;;;;;;;;;;5055117;28;20055;-74
2023/07/06 07:05:05;;;;;;;14.70;6.68;;;;;;;;;;5056226;28;20132;-73
2023/07/06 07:07:31;;;;;;;15.75;6.55;;;;;;;;;;5054743;28;20045;-74
2023/07/06 07:09:58;;;;;;;12.27;6.25;;;;;;;;;;5055912;28;20076;-73
2023/07/06 07:12:25;;;;;;;11.10;5.60;;;;;;;;;;5056425;28;20040;-75
2023/07/06 07:14:51;;;;;;;13.07;6.03;;;;;;;;;;5055574;28;20049;-73
2023/07/06 07:17:17;;;;;;;11.70;6.25;;;;;;;;;;5053459;28;20044;-73
2023/07/06 07:19:43;;;;;;;11.80;5.53;;;;;;;;;;5056022;28;20045;-74
2023/07/06 07:22:09;;;;;;;12.68;5.40;;;;;;;;;;5054005;28;20041;-74
2023/07/06 07:24:36;;;;;;;12.82;6.22;;;;;;;;;;5050828;28;20049;-73
2023/07/06 07:27:02;;;;;;;15.57;6.40;;;;;;;;;;5053856;28;20112;-75
2023/07/06 07:29:29;;;;;;;13.02;6.47;;;;;;;;;;5056695;28;20103;-79
2023/07/06 07:31:55;;;;;;;10.20;6.07;;;;;;;;;;5054991;28;20453;-72
2023/07/06 07:34:22;;;;;;;13.00;5.07;;;;;;;;;;5056080;28;20045;-72
2023/07/06 07:36:50;;;;;;;13.38;5.60;;;;;;;;;;5055581;28;20037;-72
2023/07/06 07:39:16;;;;;;;12.73;6.05;;;;;;;;;;5055108;28;20056;-72
2023/07/06 07:41:43;;;;;;;17.02;6.35;;;;;;;;;;5054543;28;20419;-73
2023/07/06 07:44:09;;;;;;;12.50;6.63;;;;;;;;;;5056516;28;20045;-73
2023/07/06 07:46:35;;;;;;;13.05;6.35;;;;;;;;;;5057981;28;20044;-74
2023/07/06 07:49:01;;;;;;;12.48;5.95;;;;;;;;;;5055603;28;20396;-74
2023/07/06 07:51:28;;;;;;;15.15;5.75;;;;;;;;;;5055599;28;20126;-73
2023/07/06 07:53:55;;;;;;;17.92;7.03;;;;;;;;;;5055960;28;20056;-74
2023/07/06 07:56:22;;;;;;;17.58;6.63;;;;;;;;;;5052180;28;20483;-74
2023/07/06 07:58:48;;;;;;;20.73;6.55;;;;;;;;;;5035745;28;20422;-74
2023/07/06 08:01:17;;;;;;;15.90;6.63;;;;;;;;;;5036466;28;20048;-73
2023/07/06 08:03:43;;;;;;;10.95;4.88;;;;;;;;;;5052865;28;20041;-73
2023/07/06 08:06:10;;;;;;;12.88;5.47;;;;;;;;;;5057788;28;20372;-74
2023/07/06 08:08:38;;;;;;;14.20;5.07;;;;;;;;;;5053097;28;20043;-74
2023/07/06 08:11:08;;;;;;;14.00;5.22;;;;;;;;;;5054878;28;20049;-73
2023/07/06 08:13:35;;;;;;;13.90;5.70;;;;;;;;;;5054595;28;20045;-74
2023/07/06 08:16:01;;;;;;;12.55;5.35;;;;;;;;;;5054521;28;20099;-73
2023/07/06 08:18:28;;;;;;;12.18;5.35;;;;;;;;;;5054019;28;20404;-73
2023/07/06 08:20:54;;;;;;;9.85;4.97;;;;;;;;;;5054492;28;20423;-74
2023/07/06 08:23:22;;;;;;;13.98;5.25;;;;;;;;;;5058972;28;20106;-72
2023/07/06 08:25:51;;;;;;;12.98;4.82;;;;;;;;;;5057614;28;20049;-73
2023/07/06 08:28:20;;;;;;;12.15;4.50;;;;;;;;;;5058001;28;20044;-73
2023/07/06 08:30:46;;;;;;;10.60;4.50;;;;;;;;;;5056492;28;20124;-74
2023/07/06 08:33:13;;;;;;;11.68;5.03;;;;;;;;;;5057410;28;20103;-73
2023/07/06 08:35:43;;;;;;;13.27;5.05;;;;;;;;;;5056512;28;20116;-73
2023/07/06 08:38:09;;;;;;;13.33;5.00;;;;;;;;;;5056553;28;20048;-74
2023/07/06 08:40:36;;;;;;;9.88;4.78;;;;;;;;;;5055835;28;20498;-74
2023/07/06 08:43:05;;;;;;;12.13;5.05;;;;;;;;;;5055940;28;20037;-74
2023/07/06 08:45:39;;;;;;;10.55;4.43;;;;;;;;;;5055563;28;20051;-73
2023/07/06 08:48:05;;;;;;;12.43;5.03;;;;;;;;;;5056788;28;20063;-73
2023/07/06 08:50:33;;;;;;;13.43;4.72;;;;;;;;;;5042093;28;20064;-73
2023/07/06 08:53:00;;;;;;;10.20;4.18;;;;;;;;;;5035010;28;20136;-74
2023/07/06 08:55:26;;;;;;;9.63;3.97;;;;;;;;;;5037911;28;20049;-73
2023/07/06 08:57:53;;;;;;;8.80;3.40;;;;;;;;;;5035511;28;20049;-74
2023/07/06 09:00:21;;;;;;;10.13;3.53;;;;;;;;;;5035049;28;20124;-73
2023/07/06 09:02:48;;;;;;;9.73;3.75;;;;;;;;;;5048466;28;20415;-73
2023/07/06 09:05:15;;;;;;;9.38;3.70;;;;;;;;;;5051844;28;20044;-74
2023/07/06 09:07:43;;;;;;;8.70;3.50;;;;;;;;;;5049415;28;20081;-73
2023/07/06 09:10:11;;;;;;;8.05;3.30;;;;;;;;;;5055882;28;20128;-73
2023/07/06 09:12:39;;;;;;;12.30;3.83;;;;;;;;;;5055587;28;20459;-73
2023/07/06 09:15:10;;;;;;;8.40;3.47;;;;;;;;;;5055951;28;20148;-73
2023/07/06 09:17:44;;;;;;;6.53;2.50;;;;;;;;;;5055875;28;20051;-74
2023/07/06 09:20:12;;;;;;;7.88;2.20;;;;;;;;;;5049610;28;20076;-72
2023/07/06 09:22:40;;;;;;;9.02;2.72;;;;;;;;;;5055436;28;20081;-73
2023/07/06 09:25:12;;;;;;;9.48;2.97;;;;;;;;;;5054986;28;20124;-73
2023/07/06 09:27:38;;;;;;;6.95;2.65;;;;;;;;;;5041109;28;20044;-73
2023/07/06 09:30:06;;;;;;;12.57;4.70;;;;;;;;;;5036728;28;20061;-73
2023/07/06 09:32:33;;;;;;;8.73;3.50;;;;;;;;;;5054743;28;20491;-73
2023/07/06 09:35:04;;;;;;;9.95;3.30;;;;;;;;;;5053091;28;20053;-75
2023/07/06 09:37:30;;;;;;;6.30;2.92;;;;;;;;;;5053443;28;20104;-73
2023/07/06 09:40:10;;;;;;;9.13;2.97;;;;;;;;;;5054444;28;20053;-73
2023/07/06 09:42:37;;;;;;;7.55;2.95;;;;;;;;;;5052149;28;21133;-73
2023/07/06 09:45:04;;;;;;;7.65;3.22;;;;;;;;;;5053468;28;20140;-72
2023/07/06 09:47:33;;;;;;;8.93;3.50;;;;;;;;;;5052013;28;20041;-72
2023/07/06 09:50:01;;;;;;;8.88;3.70;;;;;;;;;;5053411;28;20048;-73
2023/07/06 09:52:30;;;;;;;7.68;3.42;;;;;;;;;;5053629;28;20052;-73
2023/07/06 09:55:02;;;;;;;11.32;3.65;;;;;;;;;;5052999;28;20124;-73
2023/07/06 09:57:32;;;;;;;9.45;3.35;;;;;;;;;;5052008;28;20041;-75
2023/07/06 10:00:00;;;;;;;8.70;3.80;;;;;;;;;;5052826;28;20520;-73
2023/07/06 10:02:45;;;;;;;14.00;4.32;;;;;;;;;;5052257;28;20053;-73
2023/07/06 10:05:11;;;;;;;8.23;3.90;;;;;;;;;;5053136;28;20084;-73
2023/07/06 10:07:40;;;;;;;9.23;3.85;;;;;;;;;;5040509;28;20411;-73
2023/07/06 10:10:08;;;;;;;11.48;3.97;;;;;;;;;;5039466;28;20060;-73
2023/07/06 10:12:41;;;;;;;8.25;3.42;;;;;;;;;;5052545;28;20049;-73
2023/07/06 10:15:22;;;;;;;7.57;3.22;;;;;;;;;;5050479;28;20468;-72
2023/07/06 10:17:55;;;;;;;7.78;3.60;;;;;;;;;;5053039;28;20052;-73
2023/07/06 10:20:21;;;;;;;8.77;3.45;;;;;;;;;;5057174;28;20041;-72
2023/07/06 10:22:48;;;;;;;6.72;3.17;;;;;;;;;;5055707;28;20040;-71
2023/07/06 10:25:26;;;;;;;9.18;3.53;;;;;;;;;;5054491;28;20490;-73
2023/07/06 10:27:56;;;;;;;9.02;3.30;;;;;;;;;;5054251;28;20106;-74
2023/07/06 10:30:45;;;;;;;9.00;3.45;;;;;;;;;;5048864;28;20882;-73
2023/07/06 10:33:31;;;;;;;9.50;2.75;;;;;;;;;;5053812;28;20131;-72
2023/07/06 10:35:58;;;;;;;8.43;2.40;;;;;;;;;;5056486;28;20626;-73
2023/07/06 10:38:24;;;;;;;9.98;2.65;;;;;;;;;;5055906;28;20049;-72
2023/07/06 10:41:11;;;;;;;9.65;2.38;;;;;;;;;;5057127;28;20040;-73
2023/07/06 10:43:40;;;;;;;7.78;2.67;;;;;;;;;;5058019;28;20051;-73
2023/07/06 10:46:25;;;;;;;5.90;2.30;;;;;;;;;;5057289;28;20426;-73
2023/07/06 10:48:56;;;;;;;6.72;2.13;;;;;;;;;;5054152;28;20165;-73
2023/07/06 10:51:24;;;;;;;6.93;2.28;;;;;;;;;;5055937;28;20100;-73
2023/07/06 10:54:02;;;;;;;7.25;2.22;;;;;;;;;;5056704;28;20049;-72
2023/07/06 10:56:31;;;;;;;6.50;2.35;;;;;;;;;;5057698;28;20080;-73
2023/07/06 10:58:59;;;;;;;5.20;1.85;;;;;;;;;;5055337;28;20061;-72
2023/07/06 11:01:30;;;;;;;8.25;2.00;;;;;;;;;;5057624;28;20075;-73
2023/07/06 11:03:56;;;;;;;5.85;1.63;;;;;;;;;;5038806;28;20049;-73
2023/07/06 11:06:40;;;;;;;5.60;2.13;;;;;;;;;;5056435;28;20048;-74
2023/07/06 11:09:09;;;;;;;5.97;1.83;;;;;;;;;;5055601;28;20103;-73
2023/07/06 11:11:41;;;;;;;5.88;1.90;;;;;;;;;;5052959;28;20411;-74
2023/07/06 11:14:23;;;;;;;8.10;2.63;;;;;;;;;;5051151;28;20053;-72
2023/07/06 11:16:57;;;;;;;6.65;2.08;;;;;;;;;;5048197;28;20049;-73
2023/07/06 11:19:26;;;;;;;6.30;1.90;;;;;;;;;;5056040;28;20049;-73
2023/07/06 11:21:53;;;;;;;6.00;2.13;;;;;;;;;;5052035;28;20121;-72
2023/07/06 11:24:22;;;;;;;9.82;2.10;;;;;;;;;;5047043;28;20582;-71
2023/07/06 11:26:56;;;;;;;7.50;2.13;;;;;;;;;;5053453;28;20037;-73
2023/07/06 11:29:28;;;;;;;9.07;2.92;;;;;;;;;;5054223;28;20052;-73
2023/07/06 11:32:07;;;;;;;7.30;1.90;;;;;;;;;;5053570;28;20049;-73
2023/07/06 11:34:41;;;;;;;6.70;1.67;;;;;;;;;;5054531;28;20049;-73
2023/07/06 11:37:19;;;;;;;5.82;2.05;;;;;;;;;;5060446;28;20041;-73
2023/07/06 11:40:06;;;;;;;8.05;1.85;;;;;;;;;;5035352;28;20050;-72
2023/07/06 11:42:41;;;;;;;8.32;2.20;;;;;;;;;;5055657;28;20103;-72
2023/07/06 11:45:38;;;;;;;6.60;2.03;;;;;;;;;;5054404;28;20052;-73
2023/07/06 11:48:14;;;;;;;5.28;1.73;;;;;;;;;;5050242;28;20407;-73
2023/07/06 11:50:41;;;;;;;9.18;1.80;;;;;;;;;;5054773;28;20041;-73
2023/07/06 11:53:17;;;;;;;5.10;1.60;;;;;;;;;;5053500;28;20394;-72
2023/07/06 11:55:54;;;;;;;7.20;1.92;;;;;;;;;;5052788;28;20041;-71
2023/07/06 11:58:43;;;;;;;5.13;1.65;;;;;;;;;;5053554;28;20045;-72
2023/07/06 12:01:20;;;;;;;8.57;1.77;;;;;;;;;;5052937;28;20044;-71
2023/07/06 12:03:47;;;;;;;7.43;1.60;;;;;;;;;;5053778;28;20100;-72
2023/07/06 12:06:17;;;;;;;5.95;1.42;;;;;;;;;;5054000;28;20418;-72
2023/07/06 12:08:45;;;;;;;6.15;2.00;;;;;;;;;;5052909;28;20063;-73
2023/07/06 12:11:15;;;;;;;6.90;1.50;;;;;;;;;;5054531;28;20053;-72
2023/07/06 12:13:42;;;;;;;6.07;1.40;;;;;;;;;;5052445;28;20037;-72
2023/07/06 12:16:17;;;;;;;5.50;1.65;;;;;;;;;;5055029;28;20044;-72
2023/07/06 12:18:47;;;;;;;6.28;1.60;;;;;;;;;;5053191;28;20045;-72
2023/07/06 12:21:23;;;;;;;5.85;1.30;;;;;;;;;;5054104;28;20049;-73
2023/07/06 12:23:49;;;;;;;5.53;2.10;;;;;;;;;;5049526;28;20441;-74
2023/07/06 12:26:15;;;;;;;6.72;1.60;;;;;;;;;;5052793;28;20124;-73
2023/07/06 12:28:44;;;;;;;8.00;1.95;;;;;;;;;;5053485;28;20053;-74
2023/07/06 12:31:10;;;;;;;7.13;2.83;;;;;;;;;;5054375;28;20048;-72
2023/07/06 12:33:37;;;;;;;6.60;1.95;;;;;;;;;;5052166;28;20124;-72
2023/07/06 12:36:05;;;;;;;8.40;2.53;;;;;;;;;;5051592;28;20052;-71
2023/07/06 12:38:35;;;;;;;8.18;2.28;;;;;;;;;;5040471;28;20454;-72
2023/07/06 12:41:30;;;;;;;4.90;1.60;;;;;;;;;;5051759;28;20049;-72
2023/07/06 12:43:56;;;;;;;6.78;2.00;;;;;;;;;;5048446;28;20083;-73
2023/07/06 12:46:22;;;;;;;6.28;1.98;;;;;;;;;;5050650;28;20037;-71
2023/07/06 12:48:52;;;;;;;8.68;1.75;;;;;;;;;;5052963;28;20099;-72
2023/07/06 12:51:21;;;;;;;5.80;1.40;;;;;;;;;;5046876;28;20040;-72
2023/07/06 12:53:49;;;;;;;6.07;1.58;;;;;;;;;;5056467;28;20045;-74
2023/07/06 12:56:16;;;;;;;6.18;1.48;;;;;;;;;;5056427;28;20071;-73
2023/07/06 12:59:01;;;;;;;5.07;1.55;;;;;;;;;;5057112;28;20045;-74
2023/07/06 13:01:34;;;;;;;6.15;1.70;;;;;;;;;;5051408;28;20076;-73
2023/07/06 13:04:03;;;;;;;6.18;1.50;;;;;;;;;;5053723;28;20517;-72
2023/07/06 13:06:30;;;;;;;5.65;1.85;;;;;;;;;;5053289;28;20174;-73
2023/07/06 13:08:58;;;;;;;5.53;1.50;;;;;;;;;;5053128;28;20064;-71
2023/07/06 13:11:25;;;;;;;8.13;1.60;;;;;;;;;;5053781;28;20048;-73
2023/07/06 13:13:55;;;;;;;5.80;1.70;;;;;;;;;;5053095;28;20032;-73
2023/07/06 13:16:21;;;;;;;5.32;1.60;;;;;;;;;;5054648;28;20041;-73
2023/07/06 13:18:47;;;;;;;10.13;1.52;;;;;;;;;;5054107;28;20045;-73
2023/07/06 13:21:17;;;;;;;5.85;1.45;;;;;;;;;;5052348;28;20112;-73
2023/07/06 13:23:43;;;;;;;4.38;1.35;;;;;;;;;;5055365;28;20509;-73
2023/07/06 13:26:09;;;;;;;5.25;1.38;;;;;;;;;;5053806;28;20144;-73
2023/07/06 13:28:38;;;;;;;5.45;1.50;;;;;;;;;;5051651;28;20056;-72
2023/07/06 13:31:04;;;;;;;5.85;1.60;;;;;;;;;;5054206;28;20094;-73
2023/07/06 13:33:31;;;;;;;5.18;1.55;;;;;;;;;;5054818;28;20045;-72
2023/07/06 13:35:57;;;;;;;6.35;1.67;;;;;;;;;;5056103;28;20045;-72
2023/07/06 13:38:25;;;;;;;4.75;1.20;;;;;;;;;;5057082;28;20059;-72
2023/07/06 13:40:51;;;;;;;5.35;1.60;;;;;;;;;;5054872;28;20060;-71
2023/07/06 13:43:23;;;;;;;7.50;2.10;;;;;;;;;;5053409;28;20045;-72
2023/07/06 13:45:50;;;;;;;8.73;1.90;;;;;;;;;;5055072;28;20499;-71
2023/07/06 13:48:17;;;;;;;7.35;2.00;;;;;;;;;;5050876;28;20105;-76
2023/07/06 13:50:44;;;;;;;7.28;1.73;;;;;;;;;;5053736;28;20049;-74
2023/07/06 13:53:11;;;;;;;5.28;1.80;;;;;;;;;;5052157;28;20101;-72
2023/07/06 13:55:48;;;;;;;7.70;2.10;;;;;;;;;;5059030;28;20045;-75
2023/07/06 13:58:15;;;;;;;7.45;2.25;;;;;;;;;;5058026;28;20041;-75
2023/07/06 14:00:42;;;;;;;9.25;2.17;;;;;;;;;;5058269;28;20033;-76
2023/07/06 14:03:08;;;;;;;6.00;2.08;;;;;;;;;;5057280;28;20124;-74
2023/07/06 14:05:37;;;;;;;9.70;2.10;;;;;;;;;;5061135;28;20074;-76
2023/07/06 14:08:03;;;;;;;6.80;2.47;;;;;;;;;;5057235;28;20407;-74
2023/07/06 14:10:29;;;;;;;8.50;3.10;;;;;;;;;;5058991;28;20049;-74
2023/07/06 14:12:55;;;;;;;9.00;3.08;;;;;;;;;;5058071;28;20514;-73
2023/07/06 14:15:23;;;;;;;6.70;2.50;;;;;;;;;;5055626;28;20044;-72
2023/07/06 14:17:49;;;;;;;8.13;2.60;;;;;;;;;;5056275;28;20139;-73
2023/07/06 14:20:16;;;;;;;8.63;2.90;;;;;;;;;;5056779;28;20049;-72
2023/07/06 14:22:42;;;;;;;10.77;3.28;;;;;;;;;;5058161;28;20411;-72
2023/07/06 14:25:19;;;;;;;7.53;2.72;;;;;;;;;;5056082;28;20147;-73
2023/07/06 14:27:45;;;;;;;9.00;3.08;;;;;;;;;;5054987;28;20045;-73
2023/07/06 14:30:13;;;;;;;9.65;3.20;;;;;;;;;;5055585;28;20144;-73
2023/07/06 14:32:40;;;;;;;11.55;2.90;;;;;;;;;;5054042;28;20049;-73
2023/07/06 14:35:06;;;;;;;8.85;2.55;;;;;;;;;;5051706;28;20100;-73
2023/07/06 14:37:32;;;;;;;7.32;2.58;;;;;;;;;;5055226;28;20041;-73
2023/07/06 14:39:58;;;;;;;6.50;2.85;;;;;;;;;;5056021;28;20045;-73
2023/07/06 14:42:24;;;;;;;6.43;2.50;;;;;;;;;;5056335;28;20041;-74
2023/07/06 14:44:50;;;;;;;8.05;2.60;;;;;;;;;;5054573;28;20045;-73